createdAt,value
2019-04-29T00:00:15.539Z,7.30
2019-04-29T00:02:44.852Z,7.00
2019-04-29T00:05:15.059Z,7.00
2019-04-29T00:07:44.409Z,7.00
2019-04-29T00:10:18.165Z,7.10
2019-04-29T00:12:47.457Z,7.10
2019-04-29T00:15:21.408Z,7.10
2019-04-29T00:17:52.336Z,7.00
2019-04-29T00:20:23.259Z,7.00
2019-04-29T00:22:52.605Z,7.10
2019-04-29T00:25:22.178Z,7.10
2019-04-29T00:27:51.480Z,7.00
2019-04-29T00:30:22.717Z,6.80
2019-04-29T00:32:52.330Z,6.90
2019-04-29T00:35:21.676Z,6.80
2019-04-29T00:37:58.819Z,6.70
2019-04-29T00:40:46.024Z,6.80
2019-04-29T00:43:23.030Z,6.70
2019-04-29T00:45:52.404Z,6.50
2019-04-29T00:48:21.685Z,6.40
2019-04-29T00:50:51.020Z,6.30
2019-04-29T00:53:20.318Z,6.30
2019-04-29T00:55:51.291Z,6.30
2019-04-29T00:58:20.620Z,6.30
2019-04-29T01:00:50.054Z,6.20
2019-04-29T01:03:19.334Z,6.40
2019-04-29T01:05:48.696Z,6.50
2019-04-29T01:08:18.069Z,6.40
2019-04-29T01:10:47.352Z,6.30
2019-04-29T01:13:56.011Z,6.30
2019-04-29T01:16:25.304Z,6.30
2019-04-29T01:18:54.600Z,6.40
2019-04-29T01:21:24.207Z,6.30
2019-04-29T01:23:53.828Z,6.30
2019-04-29T01:26:41.277Z,6.30
2019-04-29T01:29:12.232Z,6.30
2019-04-29T01:31:42.019Z,6.20
2019-04-29T01:34:15.717Z,6.20
2019-04-29T01:36:46.789Z,6.20
2019-04-29T01:39:16.851Z,6.20
2019-04-29T01:41:53.694Z,6.10
2019-04-29T01:44:24.663Z,6.10
2019-04-29T01:46:53.957Z,6.10
2019-04-29T01:49:23.292Z,6.20
2019-04-29T01:51:52.612Z,6.20
2019-04-29T01:54:21.914Z,6.10
2019-04-29T01:56:51.253Z,6.10
2019-04-29T01:59:23.491Z,6.10
2019-04-29T02:01:52.790Z,5.90
2019-04-29T02:04:22.340Z,5.90
2019-04-29T02:06:51.645Z,5.80
2019-04-29T02:09:28.504Z,5.90
2019-04-29T02:11:57.830Z,5.80
2019-04-29T02:14:27.133Z,5.80
2019-04-29T02:16:56.479Z,5.80
2019-04-29T02:19:26.143Z,6.00
2019-04-29T02:22:15.094Z,5.90
2019-04-29T02:24:46.038Z,5.90
2019-04-29T02:27:15.357Z,5.70
2019-04-29T02:29:44.715Z,5.70
2019-04-29T02:32:14.355Z,5.70
2019-04-29T02:34:43.663Z,5.70
2019-04-29T02:37:14.673Z,5.60
2019-04-29T02:39:45.634Z,5.60
2019-04-29T02:42:33.051Z,5.50
2019-04-29T02:45:04.056Z,5.50
2019-04-29T02:47:33.382Z,5.60
2019-04-29T02:50:02.744Z,5.50
2019-04-29T02:52:32.399Z,5.40
2019-04-29T02:55:03.348Z,5.30
2019-04-29T02:57:46.560Z,5.30
2019-04-29T03:00:34.127Z,5.40
2019-04-29T03:03:05.122Z,5.70
2019-04-29T03:05:39.804Z,5.60
2019-04-29T03:08:07.111Z,5.50
2019-04-29T03:10:36.468Z,5.60
2019-04-29T03:13:06.857Z,5.60
2019-04-29T03:15:40.855Z,5.50
2019-04-29T03:18:10.548Z,5.50
2019-04-29T03:20:57.151Z,5.60
2019-04-29T03:23:27.335Z,5.50
2019-04-29T03:25:56.649Z,5.50
2019-04-29T03:28:25.945Z,5.40
2019-04-29T03:30:55.298Z,5.40
2019-04-29T03:33:24.622Z,5.40
2019-04-29T03:35:53.906Z,5.40
2019-04-29T03:38:23.313Z,5.40
2019-04-29T03:40:52.629Z,5.50
2019-04-29T03:43:21.971Z,5.50
2019-04-29T03:45:51.303Z,5.50
2019-04-29T03:48:20.627Z,5.50
2019-04-29T03:50:49.933Z,5.60
2019-04-29T03:53:19.570Z,5.60
2019-04-29T03:55:50.849Z,5.50
2019-04-29T03:58:20.184Z,5.40
2019-04-29T04:00:51.152Z,5.40
2019-04-29T04:03:28.083Z,5.40
2019-04-29T04:06:08.935Z,5.40
2019-04-29T04:08:39.892Z,5.40
2019-04-29T04:11:09.213Z,5.30
2019-04-29T04:13:38.566Z,5.30
2019-04-29T04:16:10.202Z,5.30
2019-04-29T04:18:39.587Z,5.30
2019-04-29T04:21:08.941Z,5.30
2019-04-29T04:23:38.253Z,5.20
2019-04-29T04:26:07.563Z,5.10
2019-04-29T04:28:37.265Z,5.00
2019-04-29T04:31:07.233Z,4.90
2019-04-29T04:33:37.211Z,4.90
2019-04-29T04:36:06.537Z,4.90
2019-04-29T04:38:36.192Z,5.10
2019-04-29T04:41:07.143Z,5.00
2019-04-29T04:43:36.515Z,5.10
2019-04-29T04:46:05.813Z,5.00
2019-04-29T04:48:35.439Z,5.00
2019-04-29T04:51:04.800Z,5.10
2019-04-29T04:53:34.117Z,5.10
2019-04-29T04:56:03.428Z,5.10
2019-04-29T04:58:33.040Z,5.20
2019-04-29T05:01:02.354Z,5.20
2019-04-29T05:03:31.647Z,5.30
2019-04-29T05:06:01.357Z,5.40
2019-04-29T05:08:30.964Z,5.50
2019-04-29T05:11:00.260Z,5.50
2019-04-29T05:13:29.635Z,5.50
2019-04-29T05:15:58.958Z,5.60
2019-04-29T05:18:28.573Z,5.60
2019-04-29T05:20:58.388Z,5.70
2019-04-29T05:23:27.997Z,5.70
2019-04-29T05:25:57.324Z,5.90
2019-04-29T05:28:26.697Z,6.00
2019-04-29T05:30:56.007Z,6.10
2019-04-29T05:33:25.318Z,6.20
2019-04-29T05:36:01.396Z,6.30
2019-04-29T05:38:29.337Z,6.40
2019-04-29T05:40:58.634Z,6.50
2019-04-29T05:43:35.508Z,6.50
2019-04-29T05:46:12.534Z,6.50
2019-04-29T05:48:42.292Z,6.70
2019-04-29T05:51:31.517Z,6.70
2019-04-29T05:54:05.462Z,6.70
2019-04-29T05:56:34.782Z,6.80
2019-04-29T05:59:04.155Z,6.90
2019-04-29T06:01:33.503Z,7.00
2019-04-29T06:04:02.821Z,7.00
2019-04-29T06:06:32.476Z,7.10
2019-04-29T06:09:01.842Z,7.30
2019-04-29T06:11:31.158Z,7.30
2019-04-29T06:14:00.787Z,7.40
2019-04-29T06:16:30.143Z,7.50
2019-04-29T06:19:01.595Z,7.50
2019-04-29T06:21:30.902Z,7.60
2019-04-29T06:24:04.567Z,7.70
2019-04-29T06:26:31.322Z,7.80
2019-04-29T06:29:00.623Z,7.90
2019-04-29T06:31:29.992Z,8.00
2019-04-29T06:34:00.640Z,8.10
2019-04-29T06:36:30.355Z,8.20
2019-04-29T06:38:59.952Z,8.20
2019-04-29T06:41:29.272Z,8.40
2019-04-29T06:44:00.622Z,8.50
2019-04-29T06:46:29.654Z,8.50
2019-04-29T06:49:10.121Z,8.60
2019-04-29T06:51:30.034Z,8.70
2019-04-29T06:53:59.375Z,8.70
2019-04-29T06:56:28.715Z,8.80
2019-04-29T06:58:58.017Z,8.90
2019-04-29T07:01:27.530Z,9.00
2019-04-29T07:03:59.869Z,9.00
2019-04-29T07:06:27.883Z,9.10
2019-04-29T07:08:57.272Z,9.10
2019-04-29T07:11:26.591Z,9.20
2019-04-29T07:13:57.541Z,9.30
2019-04-29T07:16:31.635Z,9.30
2019-04-29T07:18:58.067Z,9.40
2019-04-29T07:21:27.375Z,9.50
2019-04-29T07:23:56.731Z,9.50
2019-04-29T07:26:26.050Z,9.60
2019-04-29T07:28:55.513Z,9.70
2019-04-29T07:31:28.133Z,9.70
2019-04-29T07:33:58.028Z,9.80
2019-04-29T07:36:27.174Z,9.90
2019-04-29T07:38:56.909Z,10.10
2019-04-29T07:41:26.472Z,10.20
2019-04-29T07:43:56.064Z,10.30
2019-04-29T07:46:27.218Z,10.30
2019-04-29T07:49:01.643Z,10.40
2019-04-29T07:51:28.288Z,10.50
2019-04-29T07:53:57.645Z,10.50
2019-04-29T07:56:27.276Z,10.60
2019-04-29T07:58:58.967Z,10.60
2019-04-29T08:01:28.033Z,10.60
2019-04-29T08:03:57.373Z,10.60
2019-04-29T08:06:27.621Z,10.70
2019-04-29T08:09:07.331Z,11.00
2019-04-29T08:11:32.709Z,11.00
2019-04-29T08:14:02.850Z,11.10
2019-04-29T08:16:32.230Z,11.10
2019-04-29T08:19:04.579Z,11.10
2019-04-29T08:21:32.864Z,11.10
2019-04-29T08:24:02.247Z,11.20
2019-04-29T08:26:33.634Z,11.20
2019-04-29T08:29:02.947Z,11.40
2019-04-29T08:31:32.299Z,11.40
2019-04-29T08:34:01.632Z,11.50
2019-04-29T08:36:30.967Z,11.50
2019-04-29T08:39:08.273Z,11.60
2019-04-29T08:41:31.427Z,11.70
2019-04-29T08:44:16.358Z,11.90
2019-04-29T08:46:51.711Z,11.90
2019-04-29T08:49:18.226Z,12.00
2019-04-29T08:51:47.559Z,12.10
2019-04-29T08:54:20.058Z,12.10
2019-04-29T08:57:02.593Z,12.20
2019-04-29T08:59:20.745Z,12.30
2019-04-29T09:01:50.470Z,12.40
2019-04-29T09:04:20.146Z,12.50
2019-04-29T09:06:49.501Z,12.50
2019-04-29T09:09:28.705Z,12.50
2019-04-29T09:11:50.018Z,12.60
2019-04-29T09:14:19.359Z,12.50
2019-04-29T09:16:48.682Z,12.60
2019-04-29T09:19:18.070Z,12.60
2019-04-29T09:21:49.027Z,12.70
2019-04-29T09:24:18.359Z,12.70
2019-04-29T09:26:49.382Z,12.70
2019-04-29T09:29:32.237Z,12.70
2019-04-29T09:32:06.534Z,13.00
2019-04-29T09:34:36.219Z,13.20
2019-04-29T09:37:05.597Z,13.30
2019-04-29T09:39:43.327Z,13.40
2019-04-29T09:42:30.749Z,13.30
2019-04-29T09:45:02.945Z,13.40
2019-04-29T09:47:32.971Z,13.20
2019-04-29T09:50:02.669Z,13.20
2019-04-29T09:52:32.033Z,13.40
2019-04-29T09:55:03.993Z,13.50
2019-04-29T09:57:34.331Z,13.50
2019-04-29T10:00:08.216Z,13.80
2019-04-29T10:02:50.924Z,14.00
2019-04-29T10:05:27.381Z,13.80
2019-04-29T10:07:56.715Z,13.80
2019-04-29T10:10:26.163Z,13.60
2019-04-29T10:12:56.006Z,13.40
2019-04-29T10:15:45.153Z,13.50
2019-04-29T10:18:24.907Z,13.70
2019-04-29T10:20:55.177Z,13.70
2019-04-29T10:23:24.581Z,13.70
2019-04-29T10:25:53.960Z,13.70
2019-04-29T10:28:23.286Z,13.90
2019-04-29T10:30:52.988Z,13.90
2019-04-29T10:33:23.158Z,13.90
2019-04-29T10:35:52.941Z,14.00
2019-04-29T10:38:22.249Z,13.90
2019-04-29T10:41:00.716Z,14.00
2019-04-29T10:43:37.348Z,14.10
2019-04-29T10:46:20.406Z,14.30
2019-04-29T10:48:59.196Z,14.30
2019-04-29T10:51:28.573Z,14.30
2019-04-29T10:53:58.231Z,14.40
2019-04-29T10:56:27.615Z,14.20
2019-04-29T10:58:57.065Z,14.10
2019-04-29T11:02:00.685Z,14.00
2019-04-29T11:04:19.108Z,14.30
2019-04-29T11:06:48.499Z,14.70
2019-04-29T11:09:22.553Z,14.80
2019-04-29T11:11:52.317Z,14.90
2019-04-29T11:14:24.650Z,14.90
2019-04-29T11:16:52.712Z,14.40
2019-04-29T11:19:22.058Z,14.30
2019-04-29T11:21:51.363Z,14.20
2019-04-29T11:24:34.294Z,14.20
2019-04-29T11:27:11.888Z,14.50
2019-04-29T11:29:39.060Z,14.90
2019-04-29T11:32:10.211Z,15.10
2019-04-29T11:34:48.328Z,15.10
2019-04-29T11:37:19.568Z,15.10
2019-04-29T11:39:50.234Z,14.90
2019-04-29T11:42:20.296Z,14.90
2019-04-29T11:44:49.838Z,14.60
2019-04-29T11:47:21.000Z,14.60
2019-04-29T11:49:52.040Z,14.70
2019-04-29T11:52:23.628Z,15.10
2019-04-29T11:54:52.774Z,15.70
2019-04-29T11:57:23.731Z,15.90
2019-04-29T11:59:54.749Z,16.10
2019-04-29T12:02:44.796Z,16.40
2019-04-29T12:05:04.166Z,16.40
2019-04-29T12:07:34.098Z,16.60
2019-04-29T12:10:06.512Z,16.30
2019-04-29T12:12:36.029Z,16.00
2019-04-29T12:15:25.200Z,16.10
2019-04-29T12:18:12.390Z,16.10
2019-04-29T12:20:52.440Z,16.10
2019-04-29T12:23:21.830Z,16.30
2019-04-29T12:25:51.137Z,16.30
2019-04-29T12:28:20.458Z,16.00
2019-04-29T12:30:51.485Z,16.30
2019-04-29T12:33:38.116Z,16.50
2019-04-29T12:36:09.892Z,16.60
2019-04-29T12:38:48.707Z,17.10
2019-04-29T12:41:21.305Z,17.30
2019-04-29T12:43:59.551Z,17.20
2019-04-29T12:46:43.182Z,16.60
2019-04-29T12:49:13.782Z,16.30
2019-04-29T12:51:43.358Z,16.30
2019-04-29T12:54:12.726Z,16.90
2019-04-29T12:56:43.068Z,17.30
2019-04-29T12:59:13.307Z,17.40
2019-04-29T13:01:58.845Z,17.40
2019-04-29T13:04:49.831Z,17.80
2019-04-29T13:07:18.448Z,18.00
2019-04-29T13:09:52.504Z,17.40
2019-04-29T13:12:21.815Z,17.20
2019-04-29T13:15:02.539Z,17.20
2019-04-29T13:17:30.470Z,17.20
2019-04-29T13:20:02.419Z,17.20
2019-04-29T13:22:31.925Z,17.20
2019-04-29T13:25:01.410Z,17.00
2019-04-29T13:27:30.772Z,17.00
2019-04-29T13:30:01.663Z,17.30
2019-04-29T13:32:31.538Z,17.70
2019-04-29T13:35:05.229Z,17.60
2019-04-29T13:37:34.817Z,18.00
2019-04-29T13:40:07.355Z,18.30
2019-04-29T13:42:37.255Z,18.60
2019-04-29T13:45:42.797Z,19.00
2019-04-29T13:47:50.721Z,19.00
2019-04-29T13:50:38.903Z,18.20
2019-04-29T13:52:55.753Z,17.90
2019-04-29T13:55:47.360Z,18.10
2019-04-29T13:57:56.431Z,18.00
2019-04-29T14:00:36.775Z,18.00
2019-04-29T14:03:11.690Z,18.00
2019-04-29T14:05:41.675Z,18.10
2019-04-29T14:08:10.402Z,18.40
2019-04-29T14:10:39.712Z,18.40
2019-04-29T14:13:15.134Z,18.60
2019-04-29T14:15:40.581Z,18.20
2019-04-29T14:18:11.595Z,18.00
2019-04-29T14:20:41.055Z,17.70
2019-04-29T14:23:10.728Z,17.60
2019-04-29T14:25:40.069Z,18.30
2019-04-29T14:28:09.388Z,18.40
2019-04-29T14:30:39.553Z,18.10
2019-04-29T14:33:10.125Z,17.80
2019-04-29T14:35:43.622Z,17.80
2019-04-29T14:38:12.215Z,18.30
2019-04-29T14:40:42.824Z,18.60
2019-04-29T14:43:32.160Z,19.10
2019-04-29T14:46:05.369Z,19.10
2019-04-29T14:48:47.983Z,19.10
2019-04-29T14:51:17.310Z,18.90
2019-04-29T14:53:56.164Z,18.50
2019-04-29T14:56:18.064Z,18.20
2019-04-29T14:58:47.514Z,17.90
2019-04-29T15:01:27.440Z,17.80
2019-04-29T15:03:58.425Z,17.40
2019-04-29T15:06:29.638Z,17.10
2019-04-29T15:08:59.262Z,17.20
2019-04-29T15:11:32.292Z,17.40
2019-04-29T15:14:03.148Z,17.50
2019-04-29T15:16:41.747Z,17.80
2019-04-29T15:19:31.597Z,18.10
2019-04-29T15:22:17.515Z,18.10
2019-04-29T15:24:50.025Z,18.00
2019-04-29T15:27:19.340Z,17.70
2019-04-29T15:29:48.728Z,17.40
2019-04-29T15:32:22.173Z,17.30
2019-04-29T15:34:49.824Z,17.30
2019-04-29T15:37:19.433Z,17.50
2019-04-29T15:39:48.752Z,17.60
2019-04-29T15:42:18.372Z,17.50
2019-04-29T15:44:51.570Z,17.70
2019-04-29T15:47:18.879Z,17.70
2019-04-29T15:49:51.039Z,17.60
2019-04-29T15:52:20.882Z,17.60
2019-04-29T15:54:52.746Z,17.50
2019-04-29T15:57:22.288Z,17.40
2019-04-29T15:59:58.499Z,17.10
2019-04-29T16:02:23.110Z,17.10
2019-04-29T16:05:04.763Z,17.10
2019-04-29T16:11:50.961Z,17.00
2019-04-29T16:14:22.211Z,16.90
2019-04-29T16:16:51.812Z,16.80
2019-04-29T16:19:21.229Z,16.70
2019-04-29T16:21:50.521Z,16.70
2019-04-29T16:24:37.459Z,16.60
2019-04-29T16:26:53.655Z,16.40
2019-04-29T16:29:22.912Z,16.50
2019-04-29T16:31:55.061Z,16.40
2019-04-29T16:34:24.793Z,16.50
2019-04-29T16:36:54.090Z,16.70
2019-04-29T16:39:23.441Z,16.70
2019-04-29T16:42:12.571Z,16.90
2019-04-29T16:44:42.578Z,16.70
2019-04-29T16:47:13.946Z,16.60
2019-04-29T16:49:44.131Z,16.70
2019-04-29T16:52:13.494Z,16.70
2019-04-29T16:54:42.798Z,16.60
2019-04-29T16:57:12.110Z,16.60
2019-04-29T16:59:41.450Z,16.40
2019-04-29T17:02:10.887Z,16.20
2019-04-29T17:04:40.210Z,16.10
2019-04-29T17:07:13.142Z,16.20
2019-04-29T17:09:48.902Z,16.10
2019-04-29T17:12:18.316Z,16.00
2019-04-29T17:15:02.854Z,15.80
2019-04-29T17:17:28.822Z,15.70
2019-04-29T17:19:54.790Z,15.70
2019-04-29T17:22:26.793Z,15.60
2019-04-29T17:24:55.387Z,15.60
2019-04-29T17:27:29.145Z,15.50
2019-04-29T17:30:07.661Z,15.50
2019-04-29T17:35:52.748Z,15.50
2019-04-29T17:38:25.092Z,15.40
2019-04-29T17:40:54.383Z,15.30
2019-04-29T17:46:47.176Z,15.30
2019-04-29T17:49:30.579Z,15.10
2019-04-29T17:52:02.920Z,15.00
2019-04-29T17:54:34.838Z,15.00
2019-04-29T17:57:26.447Z,14.90
2019-04-29T18:00:05.121Z,14.90
2019-04-29T18:02:52.496Z,14.80
2019-04-29T18:05:32.975Z,14.70
2019-04-29T18:08:01.704Z,14.70
2019-04-29T18:10:38.566Z,14.70
2019-04-29T18:13:06.737Z,14.70
2019-04-29T18:15:51.686Z,14.60
2019-04-29T18:18:16.945Z,14.60
2019-04-29T18:20:59.485Z,14.60
2019-04-29T18:23:37.604Z,14.60
2019-04-29T18:26:26.814Z,14.50
2019-04-29T18:29:03.315Z,14.60
2019-04-29T18:31:30.713Z,14.50
2019-04-29T18:33:59.671Z,14.40
2019-04-29T18:36:29.023Z,14.30
2019-04-29T18:38:58.325Z,14.30
2019-04-29T18:41:28.837Z,14.30
2019-04-29T18:44:03.055Z,14.30
2019-04-29T18:46:29.444Z,14.30
2019-04-29T18:49:02.977Z,14.30
2019-04-29T18:51:29.892Z,14.30
2019-04-29T18:53:59.193Z,14.10
2019-04-29T18:56:32.323Z,14.20
2019-04-29T18:58:59.595Z,14.10
2019-04-29T19:02:32.218Z,14.00
2019-04-29T19:05:02.910Z,14.00
2019-04-29T19:07:37.187Z,13.90
2019-04-29T19:10:07.679Z,13.90
2019-04-29T19:12:36.440Z,13.80
2019-04-29T19:15:11.516Z,13.80
2019-04-29T19:17:40.095Z,13.80
2019-04-29T19:20:13.023Z,13.70
2019-04-29T19:22:44.155Z,13.70
2019-04-29T19:25:15.416Z,13.60
2019-04-29T19:27:45.898Z,13.60
2019-04-29T19:30:20.874Z,13.50
2019-04-29T19:32:46.924Z,13.50
2019-04-29T19:35:17.191Z,13.40
2019-04-29T19:37:46.726Z,13.30
2019-04-29T19:40:16.158Z,13.30
2019-04-29T19:43:10.370Z,13.30
2019-04-29T19:45:37.642Z,13.30
2019-04-29T19:48:06.963Z,13.40
2019-04-29T19:50:36.790Z,13.20
2019-04-29T19:53:06.345Z,13.20
2019-04-29T19:55:41.807Z,13.20
2019-04-29T19:58:10.181Z,13.30
2019-04-29T20:00:39.576Z,13.20
2019-04-29T20:03:22.684Z,13.10
2019-04-29T20:05:46.003Z,13.00
2019-04-29T20:08:37.432Z,13.00
2019-04-29T20:10:50.655Z,12.90
2019-04-29T20:13:17.538Z,12.90
2019-04-29T20:15:57.236Z,12.90
2019-04-29T20:18:40.546Z,12.80
2019-04-29T20:21:24.875Z,12.80
2019-04-29T20:23:46.795Z,12.80
2019-04-29T20:27:19.007Z,12.70
2019-04-29T20:28:51.112Z,12.70
2019-04-29T20:31:22.224Z,12.80
2019-04-29T20:33:49.803Z,12.70
2019-04-29T20:36:37.450Z,12.70
2019-04-29T20:38:50.872Z,12.60
2019-04-29T20:41:36.765Z,12.60
2019-04-29T20:43:51.807Z,12.60
2019-04-29T20:46:21.193Z,12.50
2019-04-29T20:48:55.806Z,12.50
2019-04-29T20:51:23.323Z,12.50
2019-04-29T20:54:15.948Z,12.40
2019-04-29T20:56:40.975Z,12.50
2019-04-29T20:59:12.833Z,12.50
2019-04-29T21:01:44.662Z,12.40
2019-04-29T21:04:29.760Z,12.30
2019-04-29T21:06:59.433Z,12.30
2019-04-29T21:09:16.883Z,12.30
2019-04-29T21:12:00.122Z,12.30
2019-04-29T21:14:34.005Z,12.30
2019-04-29T21:17:02.321Z,12.20
2019-04-29T21:19:31.967Z,12.20
2019-04-29T21:22:01.315Z,12.10
2019-04-29T21:24:30.618Z,12.20
2019-04-29T21:26:59.942Z,12.10
2019-04-29T21:29:29.282Z,12.00
2019-04-29T21:32:01.614Z,12.00
2019-04-29T21:34:37.016Z,12.00
2019-04-29T21:37:06.637Z,12.00
2019-04-29T21:39:39.952Z,12.10
2019-04-29T21:42:10.947Z,12.00
2019-04-29T21:44:40.241Z,12.00
2019-04-29T21:47:09.849Z,11.90
2019-04-29T21:49:45.316Z,11.80
2019-04-29T21:52:10.523Z,11.80
2019-04-29T21:54:40.146Z,11.80
2019-04-29T21:57:09.501Z,11.80
2019-04-29T21:59:41.407Z,11.60
2019-04-29T22:02:12.855Z,11.60
2019-04-29T22:04:42.212Z,11.60
2019-04-29T22:07:11.879Z,11.60
2019-04-29T22:09:47.277Z,11.60
2019-04-29T22:12:14.112Z,11.70
2019-04-29T22:14:45.123Z,11.60
2019-04-29T22:17:15.281Z,11.60
2019-04-29T22:19:45.200Z,11.60
2019-04-29T22:22:14.755Z,11.60
2019-04-29T22:24:45.827Z,11.50
2019-04-29T22:27:16.180Z,11.50
2019-04-29T22:29:47.472Z,11.60
2019-04-29T22:32:19.301Z,11.60
2019-04-29T22:34:49.537Z,11.60
2019-04-29T22:37:20.857Z,11.60
2019-04-29T22:39:50.273Z,11.60
2019-04-29T22:42:32.972Z,11.70
2019-04-29T22:45:02.641Z,11.60
2019-04-29T22:47:31.910Z,11.60
2019-04-29T22:50:03.323Z,11.60
2019-04-29T22:52:32.350Z,11.70
2019-04-29T22:55:02.346Z,11.70
2019-04-29T22:57:31.968Z,11.70
2019-04-29T23:00:01.594Z,11.70
2019-04-29T23:02:30.939Z,11.70
2019-04-29T23:05:00.331Z,11.80
2019-04-29T23:07:29.902Z,11.60
2019-04-29T23:09:59.196Z,11.60
2019-04-29T23:12:28.611Z,11.50
2019-04-29T23:14:58.601Z,11.50
2019-04-29T23:17:28.423Z,11.50
2019-04-29T23:19:59.411Z,11.50
2019-04-29T23:22:30.354Z,11.50
2019-04-29T23:25:01.428Z,11.50
2019-04-29T23:27:31.051Z,11.60
2019-04-29T23:30:00.337Z,11.60
2019-04-29T23:32:29.701Z,11.50
2019-04-29T23:35:01.663Z,11.50
2019-04-29T23:37:30.380Z,11.50
2019-04-29T23:40:00.025Z,11.50
2019-04-29T23:42:29.363Z,11.50
2019-04-29T23:44:58.688Z,11.50
2019-04-29T23:47:27.975Z,11.50
2019-04-29T23:57:48.353Z,11.30
